createdAt,value
2019-01-17T00:00:28.208Z,88.80
2019-01-17T00:03:05.097Z,88.79
2019-01-17T00:05:37.601Z,88.82
2019-01-17T00:08:20.389Z,88.89
2019-01-17T00:10:54.010Z,88.97
2019-01-17T00:13:33.747Z,88.97
2019-01-17T00:16:21.294Z,89.01
2019-01-17T00:18:58.498Z,89.01
2019-01-17T00:21:35.152Z,89.04
2019-01-17T00:24:15.237Z,89.13
2019-01-17T00:26:49.102Z,89.17
2019-01-17T00:29:22.963Z,89.17
2019-01-17T00:31:54.373Z,89.18
2019-01-17T00:34:31.502Z,89.24
2019-01-17T00:37:02.797Z,89.26
2019-01-17T00:39:33.966Z,89.24
2019-01-17T00:42:08.179Z,89.28
2019-01-17T00:44:48.325Z,89.33
2019-01-17T00:47:19.665Z,89.34
2019-01-17T00:49:48.961Z,89.32
2019-01-17T00:52:35.976Z,89.34
2019-01-17T00:55:15.391Z,89.33
2019-01-17T00:57:49.507Z,89.33
2019-01-17T01:00:20.788Z,89.28
2019-01-17T01:02:54.750Z,89.22
2019-01-17T01:05:25.956Z,89.23
2019-01-17T01:07:57.189Z,89.23
2019-01-17T01:10:37.252Z,89.31
2019-01-17T01:13:07.130Z,89.29
2019-01-17T01:15:43.793Z,89.15
2019-01-17T01:18:17.417Z,89.00
2019-01-17T01:20:48.776Z,88.89
2019-01-17T01:23:25.943Z,88.90
2019-01-17T01:25:57.163Z,88.98
2019-01-17T01:28:31.070Z,89.08
2019-01-17T01:31:02.276Z,89.15
2019-01-17T01:33:34.332Z,89.10
2019-01-17T01:36:14.686Z,89.06
2019-01-17T01:38:51.667Z,89.01
2019-01-17T01:41:21.011Z,89.00
2019-01-17T01:43:58.049Z,89.04
2019-01-17T01:46:29.245Z,89.06
2019-01-17T01:49:00.483Z,88.99
2019-01-17T01:51:37.187Z,88.92
2019-01-17T01:54:06.914Z,88.90
2019-01-17T01:56:36.449Z,88.85
2019-01-17T01:59:06.060Z,88.79
2019-01-17T02:01:35.599Z,88.74
2019-01-17T02:04:05.609Z,88.70
2019-01-17T02:06:35.146Z,88.72
2019-01-17T02:09:07.687Z,88.65
2019-01-17T02:11:37.569Z,88.58
2019-01-17T02:14:07.756Z,88.47
2019-01-17T02:16:37.384Z,88.42
2019-01-17T02:19:06.997Z,88.35
2019-01-17T02:21:36.592Z,88.23
2019-01-17T02:24:06.292Z,88.09
2019-01-17T02:26:35.823Z,87.95
2019-01-17T02:29:05.610Z,87.77
2019-01-17T02:31:35.154Z,87.63
2019-01-17T02:34:04.969Z,87.44
2019-01-17T02:36:34.503Z,87.25
2019-01-17T02:39:05.722Z,87.10
2019-01-17T02:41:35.384Z,86.88
2019-01-17T02:44:05.115Z,86.68
2019-01-17T02:46:34.717Z,86.53
2019-01-17T02:49:04.592Z,86.37
2019-01-17T02:51:34.161Z,86.20
2019-01-17T02:54:03.847Z,86.03
2019-01-17T02:56:33.457Z,85.90
2019-01-17T02:59:03.193Z,85.76
2019-01-17T03:01:32.729Z,85.56
2019-01-17T03:04:02.271Z,85.40
2019-01-17T03:06:32.214Z,85.27
2019-01-17T03:09:01.818Z,85.14
2019-01-17T03:11:31.420Z,84.97
2019-01-17T03:14:00.988Z,84.79
2019-01-17T03:16:30.600Z,84.67
2019-01-17T03:19:00.141Z,84.56
2019-01-17T03:21:29.780Z,84.43
2019-01-17T03:23:59.315Z,84.29
2019-01-17T03:26:28.855Z,84.17
2019-01-17T03:28:59.095Z,84.03
2019-01-17T03:31:28.640Z,83.93
2019-01-17T03:33:58.189Z,83.81
2019-01-17T03:36:27.824Z,83.69
2019-01-17T03:38:57.358Z,83.56
2019-01-17T03:41:26.983Z,83.46
2019-01-17T03:43:56.923Z,83.38
2019-01-17T03:46:26.467Z,83.28
2019-01-17T03:48:56.011Z,83.20
2019-01-17T03:51:25.589Z,83.07
2019-01-17T03:53:55.124Z,82.99
2019-01-17T03:56:24.664Z,82.93
2019-01-17T03:58:54.302Z,82.89
2019-01-17T04:01:23.842Z,82.86
2019-01-17T04:03:53.558Z,82.87
2019-01-17T04:06:23.396Z,82.92
2019-01-17T04:08:53.012Z,82.92
2019-01-17T04:11:22.560Z,82.86
2019-01-17T04:13:52.142Z,82.85
2019-01-17T04:16:21.663Z,82.77
2019-01-17T04:18:51.338Z,82.74
2019-01-17T04:21:20.926Z,82.74
2019-01-17T04:23:50.469Z,82.77
2019-01-17T04:26:20.074Z,82.79
2019-01-17T04:28:49.792Z,82.82
2019-01-17T04:31:19.332Z,82.92
2019-01-17T04:33:48.932Z,83.02
2019-01-17T04:36:18.612Z,83.10
2019-01-17T04:38:48.154Z,83.12
2019-01-17T04:41:17.760Z,83.10
2019-01-17T04:43:47.347Z,83.01
2019-01-17T04:46:16.879Z,83.02
2019-01-17T04:48:46.424Z,83.00
2019-01-17T04:51:16.331Z,82.98
2019-01-17T04:53:45.870Z,82.97
2019-01-17T04:56:15.406Z,82.92
2019-01-17T04:58:44.968Z,82.88
2019-01-17T05:01:14.498Z,82.84
2019-01-17T05:03:44.057Z,82.79
2019-01-17T05:06:13.640Z,82.78
2019-01-17T05:08:43.190Z,82.73
2019-01-17T05:11:12.732Z,82.68
2019-01-17T05:13:42.295Z,82.64
2019-01-17T05:16:11.835Z,82.71
2019-01-17T05:18:41.382Z,82.71
2019-01-17T05:21:11.449Z,82.68
2019-01-17T05:23:40.988Z,82.63
2019-01-17T05:26:10.547Z,82.63
2019-01-17T05:28:40.371Z,82.62
2019-01-17T05:31:09.917Z,82.60
2019-01-17T05:33:39.496Z,82.54
2019-01-17T05:36:09.017Z,82.51
2019-01-17T05:38:38.555Z,82.50
2019-01-17T05:41:08.166Z,82.47
2019-01-17T05:43:37.741Z,82.44
2019-01-17T05:46:07.277Z,82.38
2019-01-17T05:48:36.817Z,82.28
2019-01-17T05:51:06.839Z,82.17
2019-01-17T05:53:36.445Z,82.17
2019-01-17T05:56:06.054Z,82.26
2019-01-17T05:58:35.704Z,82.37
2019-01-17T06:01:05.497Z,82.39
2019-01-17T06:03:35.093Z,82.44
2019-01-17T06:06:05.015Z,82.49
2019-01-17T06:08:34.558Z,82.62
2019-01-17T06:11:04.096Z,82.62
2019-01-17T06:13:33.828Z,82.74
2019-01-17T06:16:03.938Z,82.85
2019-01-17T06:18:33.485Z,82.95
2019-01-17T06:21:03.057Z,83.14
2019-01-17T06:23:32.599Z,83.26
2019-01-17T06:26:02.448Z,83.27
2019-01-17T06:28:32.299Z,83.31
2019-01-17T06:31:02.095Z,83.35
2019-01-17T06:33:31.657Z,83.39
2019-01-17T06:36:01.530Z,83.50
2019-01-17T06:38:31.136Z,83.56
2019-01-17T06:41:00.679Z,83.63
2019-01-17T06:43:31.217Z,83.65
2019-01-17T06:46:00.779Z,83.65
2019-01-17T06:48:30.321Z,83.67
2019-01-17T06:50:59.905Z,83.70
2019-01-17T06:53:29.442Z,83.67
2019-01-17T06:55:59.057Z,83.69
2019-01-17T06:58:30.466Z,83.72
2019-01-17T07:01:00.013Z,83.74
2019-01-17T07:03:29.547Z,83.71
2019-01-17T07:05:59.135Z,83.72
2019-01-17T07:08:28.683Z,83.76
2019-01-17T07:10:58.222Z,83.82
2019-01-17T07:13:27.793Z,83.84
2019-01-17T07:15:57.333Z,83.77
2019-01-17T07:18:26.868Z,83.75
2019-01-17T07:20:56.719Z,83.85
2019-01-17T07:23:26.328Z,84.01
2019-01-17T07:25:55.865Z,84.18
2019-01-17T07:28:25.437Z,84.35
2019-01-17T07:30:54.983Z,84.47
2019-01-17T07:33:24.523Z,84.69
2019-01-17T07:35:54.086Z,84.89
2019-01-17T07:38:23.637Z,85.05
2019-01-17T07:40:53.242Z,85.18
2019-01-17T07:43:22.943Z,85.29
2019-01-17T07:45:52.473Z,85.33
2019-01-17T07:48:22.015Z,85.33
2019-01-17T07:50:51.578Z,85.18
2019-01-17T07:53:21.115Z,85.14
2019-01-17T07:55:50.751Z,85.20
2019-01-17T07:58:20.553Z,85.22
2019-01-17T08:00:50.179Z,85.22
2019-01-17T08:03:19.730Z,85.29
2019-01-17T08:05:49.750Z,85.38
2019-01-17T08:08:19.304Z,85.52
2019-01-17T08:10:48.831Z,85.79
2019-01-17T08:13:18.479Z,86.01
2019-01-17T08:15:48.083Z,86.09
2019-01-17T08:18:18.727Z,86.23
2019-01-17T08:20:48.613Z,86.35
2019-01-17T08:23:18.234Z,86.35
2019-01-17T08:25:53.977Z,86.29
2019-01-17T08:28:19.070Z,86.21
2019-01-17T08:30:48.608Z,86.04
2019-01-17T08:33:18.160Z,86.02
2019-01-17T08:35:47.749Z,85.88
2019-01-17T08:38:17.674Z,85.67
2019-01-17T08:40:47.308Z,85.45
2019-01-17T08:43:17.233Z,85.24
2019-01-17T08:45:46.835Z,85.06
2019-01-17T08:48:16.450Z,84.96
2019-01-17T08:50:46.031Z,84.88
2019-01-17T08:53:15.581Z,84.80
2019-01-17T08:55:45.114Z,84.70
2019-01-17T08:58:14.688Z,84.49
2019-01-17T09:00:44.228Z,84.39
2019-01-17T09:03:13.767Z,84.31
2019-01-17T09:05:43.519Z,84.22
2019-01-17T09:08:13.125Z,84.24
2019-01-17T09:10:42.744Z,84.26
2019-01-17T09:13:12.447Z,84.18
2019-01-17T09:15:42.029Z,84.13
2019-01-17T09:18:11.636Z,84.02
2019-01-17T09:20:41.266Z,83.91
2019-01-17T09:23:10.802Z,83.77
2019-01-17T09:25:40.423Z,83.47
2019-01-17T09:28:10.110Z,83.24
2019-01-17T09:30:39.675Z,83.04
2019-01-17T09:33:09.217Z,82.88
2019-01-17T09:35:38.921Z,82.72
2019-01-17T09:38:08.456Z,82.64
2019-01-17T09:40:37.998Z,82.54
2019-01-17T09:43:07.582Z,82.42
2019-01-17T09:45:37.119Z,82.32
2019-01-17T09:48:06.755Z,82.08
2019-01-17T09:50:36.473Z,81.79
2019-01-17T09:53:06.086Z,81.66
2019-01-17T09:55:35.718Z,81.55
2019-01-17T09:58:05.598Z,81.37
2019-01-17T10:00:35.212Z,81.08
2019-01-17T10:03:04.890Z,80.87
2019-01-17T10:05:34.724Z,80.44
2019-01-17T10:08:04.607Z,80.09
2019-01-17T10:10:34.143Z,79.74
2019-01-17T10:13:03.850Z,79.33
2019-01-17T10:15:50.552Z,78.99
2019-01-17T10:18:55.913Z,78.67
2019-01-17T10:22:01.837Z,78.53
2019-01-17T10:24:59.736Z,78.47
2019-01-17T10:27:58.403Z,78.19
2019-01-17T10:31:03.568Z,78.10
2019-01-17T10:33:49.456Z,77.97
2019-01-17T10:36:44.975Z,77.75
2019-01-17T10:39:55.380Z,77.63
2019-01-17T10:42:49.927Z,77.50
2019-01-17T10:45:52.450Z,77.42
2019-01-17T10:48:45.882Z,77.46
2019-01-17T10:51:40.602Z,77.54
2019-01-17T10:54:14.886Z,77.36
2019-01-17T10:57:06.506Z,77.40
2019-01-17T10:59:46.097Z,77.45
2019-01-17T11:02:38.537Z,77.33
2019-01-17T11:05:36.899Z,77.08
2019-01-17T11:08:37.673Z,76.83
2019-01-17T11:11:45.518Z,76.53
2019-01-17T11:14:31.568Z,76.32
2019-01-17T11:17:28.771Z,76.06
2019-01-17T11:20:08.531Z,75.78
2019-01-17T11:22:54.776Z,75.41
2019-01-17T11:25:56.282Z,75.08
2019-01-17T11:28:57.698Z,74.62
2019-01-17T11:32:08.830Z,74.23
2019-01-17T11:34:54.291Z,73.86
2019-01-17T11:37:57.452Z,73.69
2019-01-17T11:40:55.770Z,73.68
2019-01-17T11:43:36.025Z,73.75
2019-01-17T11:46:19.144Z,73.69
2019-01-17T11:49:26.514Z,73.72
2019-01-17T11:52:24.249Z,73.72
2019-01-17T11:55:03.611Z,73.78
2019-01-17T11:57:49.216Z,73.66
2019-01-17T12:00:26.407Z,73.71
2019-01-17T12:03:06.443Z,73.79
2019-01-17T12:05:35.996Z,73.79
2019-01-17T12:08:05.671Z,73.82
2019-01-17T12:10:35.236Z,73.73
2019-01-17T12:13:05.115Z,73.67
2019-01-17T12:15:34.656Z,73.34
2019-01-17T12:18:04.292Z,73.28
2019-01-17T12:20:33.840Z,73.14
2019-01-17T12:23:03.381Z,72.89
2019-01-17T12:25:33.143Z,72.68
2019-01-17T12:28:02.684Z,72.51
2019-01-17T12:30:32.220Z,72.26
2019-01-17T12:33:02.171Z,72.13
2019-01-17T12:35:31.711Z,72.01
2019-01-17T12:38:01.256Z,71.85
2019-01-17T12:40:30.818Z,71.71
2019-01-17T12:43:00.371Z,71.49
2019-01-17T12:45:30.038Z,71.19
2019-01-17T12:47:59.705Z,70.89
2019-01-17T12:50:29.316Z,70.78
2019-01-17T12:52:58.929Z,70.73
2019-01-17T12:55:28.572Z,70.66
2019-01-17T12:57:58.114Z,70.39
2019-01-17T13:00:27.778Z,70.24
2019-01-17T13:02:57.453Z,70.09
2019-01-17T13:05:26.999Z,70.08
2019-01-17T13:07:56.530Z,70.03
2019-01-17T13:10:26.116Z,69.64
2019-01-17T13:12:55.661Z,69.43
2019-01-17T13:15:25.332Z,69.26
2019-01-17T13:17:55.208Z,69.13
2019-01-17T13:20:24.820Z,68.92
2019-01-17T13:22:54.360Z,68.87
2019-01-17T13:25:24.102Z,68.75
2019-01-17T13:27:53.790Z,68.75
2019-01-17T13:30:24.662Z,68.60
2019-01-17T13:32:54.240Z,68.49
2019-01-17T13:35:23.780Z,68.61
2019-01-17T13:37:53.401Z,68.62
2019-01-17T13:40:23.408Z,68.58
2019-01-17T13:42:53.020Z,68.48
2019-01-17T13:45:22.800Z,68.28
2019-01-17T13:47:52.424Z,68.28
2019-01-17T13:50:22.107Z,68.21
2019-01-17T13:52:51.662Z,68.14
2019-01-17T13:55:21.231Z,68.19
2019-01-17T13:57:50.765Z,68.19
2019-01-17T14:00:25.593Z,68.22
2019-01-17T14:02:55.398Z,68.22
2019-01-17T14:05:25.008Z,68.34
2019-01-17T14:07:54.578Z,68.36
2019-01-17T14:10:24.287Z,68.38
2019-01-17T14:12:53.882Z,68.51
2019-01-17T14:15:30.508Z,68.63
2019-01-17T14:18:00.049Z,68.72
2019-01-17T14:20:29.667Z,68.86
2019-01-17T14:22:59.362Z,68.88
2019-01-17T14:25:28.895Z,68.69
2019-01-17T14:27:58.502Z,68.53
2019-01-17T14:30:32.861Z,68.53
2019-01-17T14:33:02.393Z,68.53
2019-01-17T14:35:31.942Z,68.56
2019-01-17T14:38:01.510Z,68.70
2019-01-17T14:40:31.045Z,68.91
2019-01-17T14:43:00.582Z,69.14
2019-01-17T14:45:30.628Z,69.39
2019-01-17T14:48:00.162Z,69.61
2019-01-17T14:50:31.710Z,69.88
2019-01-17T14:53:01.479Z,70.11
2019-01-17T14:55:31.021Z,70.40
2019-01-17T14:58:00.559Z,70.68
2019-01-17T15:00:34.090Z,71.05
2019-01-17T15:03:03.796Z,71.42
2019-01-17T15:05:33.472Z,71.70
2019-01-17T15:08:03.063Z,72.11
2019-01-17T15:10:36.967Z,72.65
2019-01-17T15:13:06.852Z,73.23
2019-01-17T15:15:36.630Z,73.75
2019-01-17T15:18:06.707Z,74.24
2019-01-17T15:20:36.248Z,74.71
2019-01-17T15:23:06.054Z,75.19
2019-01-17T15:25:35.589Z,75.70
2019-01-17T15:28:05.946Z,76.27
2019-01-17T15:30:35.728Z,76.72
2019-01-17T15:33:05.611Z,77.15
2019-01-17T15:35:35.146Z,77.60
2019-01-17T15:38:05.295Z,77.88
2019-01-17T15:40:35.154Z,78.10
2019-01-17T15:43:04.763Z,78.30
2019-01-17T15:45:34.356Z,78.52
2019-01-17T15:48:03.962Z,78.71
2019-01-17T15:50:33.672Z,78.95
2019-01-17T15:53:03.279Z,79.15
2019-01-17T15:55:32.830Z,79.27
2019-01-17T15:58:02.434Z,79.27
2019-01-17T16:00:32.546Z,79.34
2019-01-17T16:03:02.156Z,79.42
2019-01-17T16:05:31.786Z,79.61
2019-01-17T16:08:01.397Z,79.88
2019-01-17T16:10:31.204Z,80.10
2019-01-17T16:13:00.763Z,80.28
2019-01-17T16:15:30.743Z,80.50
2019-01-17T16:18:00.290Z,80.70
2019-01-17T16:20:29.919Z,80.83
2019-01-17T16:22:59.677Z,80.90
2019-01-17T16:25:29.285Z,80.92
2019-01-17T16:27:58.844Z,80.94
2019-01-17T16:30:30.651Z,80.91
2019-01-17T16:33:00.263Z,80.93
2019-01-17T16:35:29.818Z,80.92
2019-01-17T16:37:59.409Z,80.86
2019-01-17T16:40:29.053Z,80.73
2019-01-17T16:42:58.650Z,80.65
2019-01-17T16:45:28.301Z,80.66
2019-01-17T16:47:57.833Z,80.72
2019-01-17T16:50:27.589Z,80.83
2019-01-17T16:52:57.153Z,80.76
2019-01-17T16:55:26.707Z,80.61
2019-01-17T16:57:56.255Z,80.42
2019-01-17T17:00:30.530Z,80.44
2019-01-17T17:03:00.229Z,80.59
2019-01-17T17:05:29.792Z,80.60
2019-01-17T17:07:59.332Z,80.73
2019-01-17T17:10:28.882Z,80.93
2019-01-17T17:12:58.422Z,81.10
2019-01-17T17:15:28.665Z,81.18
2019-01-17T17:17:58.300Z,81.30
2019-01-17T17:20:28.059Z,81.52
2019-01-17T17:22:57.635Z,81.72
2019-01-17T17:25:27.173Z,81.97
2019-01-17T17:27:56.867Z,82.25
2019-01-17T17:30:28.430Z,82.54
2019-01-17T17:32:58.065Z,82.98
2019-01-17T17:35:27.614Z,83.45
2019-01-17T17:37:57.651Z,84.01
2019-01-17T17:40:29.496Z,84.56
2019-01-17T17:42:59.067Z,84.97
2019-01-17T17:45:28.706Z,85.42
2019-01-17T17:47:58.345Z,85.87
2019-01-17T17:50:27.891Z,86.25
2019-01-17T17:52:57.491Z,86.57
2019-01-17T17:55:27.032Z,86.83
2019-01-17T17:58:02.130Z,87.19
2019-01-17T18:00:29.814Z,87.46
2019-01-17T18:02:59.729Z,87.51
2019-01-17T18:05:29.284Z,87.63
2019-01-17T18:07:58.950Z,87.78
2019-01-17T18:10:28.498Z,87.92
2019-01-17T18:12:58.048Z,88.12
2019-01-17T18:15:27.706Z,88.36
2019-01-17T18:17:57.344Z,88.51
2019-01-17T18:20:26.890Z,88.80
2019-01-17T18:22:56.473Z,89.00
2019-01-17T18:25:26.020Z,89.29
2019-01-17T18:27:55.589Z,89.59
2019-01-17T18:30:27.541Z,89.80
2019-01-17T18:32:57.224Z,90.05
2019-01-17T18:35:26.777Z,90.17
2019-01-17T18:37:56.490Z,90.36
2019-01-17T18:40:26.100Z,90.54
2019-01-17T18:42:55.807Z,90.79
2019-01-17T18:45:28.942Z,90.95
2019-01-17T18:47:58.534Z,91.15
2019-01-17T18:50:31.978Z,91.36
2019-01-17T18:53:01.845Z,91.57
2019-01-17T18:55:31.547Z,91.71
2019-01-17T18:58:01.245Z,91.81
2019-01-17T19:00:31.487Z,91.94
2019-01-17T19:03:01.270Z,92.11
2019-01-17T19:05:31.243Z,92.29
2019-01-17T19:08:01.124Z,92.47
2019-01-17T19:10:30.801Z,92.55
2019-01-17T19:13:00.335Z,92.65
2019-01-17T19:15:32.312Z,92.83
2019-01-17T19:18:01.986Z,92.93
2019-01-17T19:20:31.719Z,93.00
2019-01-17T19:23:01.785Z,93.06
2019-01-17T19:25:31.457Z,93.08
2019-01-17T19:28:00.987Z,93.16
2019-01-17T19:30:31.299Z,93.18
2019-01-17T19:33:01.196Z,93.25
2019-01-17T19:35:30.807Z,93.29
2019-01-17T19:38:00.395Z,93.38
2019-01-17T19:40:30.821Z,93.43
2019-01-17T19:43:00.426Z,93.49
2019-01-17T19:45:30.136Z,93.48
2019-01-17T19:47:59.676Z,93.54
2019-01-17T19:50:35.703Z,93.68
2019-01-17T19:53:05.615Z,93.72
2019-01-17T19:55:36.364Z,93.71
2019-01-17T19:58:06.193Z,93.76
2019-01-17T20:00:35.969Z,93.69
2019-01-17T20:03:06.418Z,93.66
2019-01-17T20:05:36.530Z,93.69
2019-01-17T20:08:06.153Z,93.70
2019-01-17T20:10:35.919Z,93.70
2019-01-17T20:13:06.110Z,93.70
2019-01-17T20:15:35.780Z,93.63
2019-01-17T20:18:05.785Z,93.65
2019-01-17T20:20:35.570Z,93.65
2019-01-17T20:23:05.408Z,93.63
2019-01-17T20:25:35.010Z,93.55
2019-01-17T20:28:05.052Z,93.53
2019-01-17T20:30:35.157Z,93.49
2019-01-17T20:33:04.916Z,93.40
2019-01-17T20:35:34.582Z,93.37
2019-01-17T20:38:04.807Z,93.29
2019-01-17T20:40:34.482Z,93.29
2019-01-17T20:43:04.368Z,93.27
2019-01-17T20:45:34.037Z,93.26
2019-01-17T20:48:03.825Z,93.27
2019-01-17T20:50:33.733Z,93.19
2019-01-17T20:53:03.444Z,93.09
2019-01-17T20:55:33.069Z,93.02
2019-01-17T20:58:02.735Z,93.00
2019-01-17T21:00:45.226Z,92.86
2019-01-17T21:03:17.392Z,92.75
2019-01-17T21:05:46.998Z,92.67
2019-01-17T21:08:16.605Z,92.62
2019-01-17T21:10:46.245Z,92.63
2019-01-17T21:13:15.786Z,92.61
2019-01-17T21:15:45.329Z,92.36
2019-01-17T21:18:15.011Z,92.20
2019-01-17T21:20:44.545Z,92.23
2019-01-17T21:23:14.157Z,92.40
2019-01-17T21:25:43.808Z,92.57
2019-01-17T21:28:13.418Z,92.61
2019-01-17T21:30:42.954Z,92.64
2019-01-17T21:33:12.863Z,92.73
2019-01-17T21:35:42.414Z,92.85
2019-01-17T21:38:11.948Z,92.84
2019-01-17T21:40:41.517Z,92.86
2019-01-17T21:43:11.069Z,92.92
2019-01-17T21:45:40.606Z,93.10
2019-01-17T21:48:10.181Z,93.44
2019-01-17T21:50:39.732Z,93.66
2019-01-17T21:53:09.441Z,93.74
2019-01-17T21:55:39.071Z,93.69
2019-01-17T21:58:08.617Z,93.62
2019-01-17T22:00:38.245Z,93.57
2019-01-17T22:03:07.818Z,93.50
2019-01-17T22:05:37.363Z,93.50
2019-01-17T22:08:06.897Z,93.40
2019-01-17T22:10:36.474Z,93.27
2019-01-17T22:13:06.174Z,93.00
2019-01-17T22:15:35.730Z,92.63
2019-01-17T22:18:05.512Z,92.44
2019-01-17T22:20:35.055Z,92.35
2019-01-17T22:23:04.604Z,92.33
2019-01-17T22:25:34.539Z,92.32
2019-01-17T22:28:04.150Z,92.30
2019-01-17T22:30:33.756Z,92.33
2019-01-17T22:33:03.325Z,92.41
2019-01-17T22:35:32.943Z,92.39
2019-01-17T22:38:02.469Z,92.39
2019-01-17T22:40:32.036Z,92.39
2019-01-17T22:43:01.583Z,92.37
2019-01-17T22:45:32.618Z,92.37
2019-01-17T22:48:02.333Z,92.32
2019-01-17T22:50:31.878Z,92.20
2019-01-17T22:53:01.410Z,92.16
2019-01-17T22:55:30.979Z,92.13
2019-01-17T22:58:00.529Z,91.90
2019-01-17T23:00:56.979Z,91.70
2019-01-17T23:03:33.536Z,91.44
2019-01-17T23:06:03.166Z,90.98
2019-01-17T23:08:32.704Z,90.68
2019-01-17T23:11:02.374Z,90.26
2019-01-17T23:13:32.111Z,89.92
2019-01-17T23:16:01.651Z,89.68
2019-01-17T23:18:31.396Z,89.42
2019-01-17T23:21:01.054Z,89.29
2019-01-17T23:23:30.622Z,89.21
2019-01-17T23:26:00.155Z,89.34
2019-01-17T23:28:29.725Z,89.52
2019-01-17T23:30:59.374Z,89.84
2019-01-17T23:33:28.875Z,90.12
2019-01-17T23:35:58.582Z,90.53
2019-01-17T23:38:28.114Z,90.86
2019-01-17T23:40:57.651Z,91.17
2019-01-17T23:43:27.359Z,91.40
2019-01-17T23:45:56.892Z,91.51
2019-01-17T23:48:26.432Z,91.58
2019-01-17T23:50:56.428Z,91.70
2019-01-17T23:53:26.390Z,91.73
2019-01-17T23:55:55.928Z,91.71
2019-01-17T23:58:25.506Z,91.55
